< < Back
Terminal Aerodrome Forecast


Current Version              Previous Versions:   1  2  3  4  5  6  7  8  9  

Terminal Aerodrome Forecast

045
FTUS42 KFFC 160200 AAA
TAFAHN
TAF AMD
KAHN 160205Z 1602/1624 33008G15KT P6SM SKC
     FM160700 03008KT P6SM SKC
     FM161400 08010G18KT P6SM SCT250=

Latest METAR

914
SAUS70 KWBC 160700
MTRAHN
METAR KAHN 160651Z AUTO 33005KT 10SM CLR 02/M02 A3012 RMK AO2 SLP200
T00221017


USA.gov is the U.S. government's official web portal to all federal, state and local government web resources and services.